Terminal Aerodrome Forecast
Issued by NWS La Crosse, WI

Home | Current Version | Previous Version | Text Only | Print | Product List | Glossary On
Versions: 1 2 3 4 5 6 7 8 9 10 11 12 13 14 15 16 17 18 19 20 21 22 23 24 25 26 27 28 29
000
FTUS43 KARX 250520
TAFRST
TAF
KRST 250520Z 2506/2606 13010KT 3SM BR OVC004
      TEMPO 2506/2508 1 1/2SM -SHRA BR OVC002
     FM250800 15008KT 2SM -SHRA BR OVC004
     FM251000 22008KT 3SM -SHRA BR OVC008
     FM251400 24012KT 5SM BR VCSH BKN010
     FM251700 23015G24KT P6SM BKN020
     FM260000 20011KT P6SM VCSH BKN030=

USA.gov is the U.S. government's official web portal to all federal, state and local government web resources and services.